sensor_id;sensor_type;location;lat;lon;timestamp;P1;durP1;ratioP1;P2;durP2;ratioP2
45322;SDS011;31382;50.200;8.674;2023-06-22T00:03:41;5.18;;;3.60;;
45322;SDS011;31382;50.200;8.674;2023-06-22T00:08:42;4.18;;;3.25;;
45322;SDS011;31382;50.200;8.674;2023-06-22T00:13:44;6.18;;;3.38;;
45322;SDS011;31382;50.200;8.674;2023-06-22T00:18:45;3.30;;;3.00;;
45322;SDS011;31382;50.200;8.674;2023-06-22T00:23:48;3.72;;;3.17;;
45322;SDS011;31382;50.200;8.674;2023-06-22T00:28:50;6.35;;;3.42;;
45322;SDS011;31382;50.200;8.674;2023-06-22T00:33:51;4.45;;;4.05;;
45322;SDS011;31382;50.200;8.674;2023-06-22T00:38:53;7.55;;;3.45;;
45322;SDS011;31382;50.200;8.674;2023-06-22T00:43:54;6.25;;;2.88;;
45322;SDS011;31382;50.200;8.674;2023-06-22T00:48:56;5.70;;;3.05;;
45322;SDS011;31382;50.200;8.674;2023-06-22T00:53:58;5.13;;;3.30;;
45322;SDS011;31382;50.200;8.674;2023-06-22T00:59:00;4.25;;;3.17;;
45322;SDS011;31382;50.200;8.674;2023-06-22T01:04:04;3.88;;;3.08;;
45322;SDS011;31382;50.200;8.674;2023-06-22T01:09:15;7.85;;;3.53;;
45322;SDS011;31382;50.200;8.674;2023-06-22T01:14:23;5.43;;;3.88;;
45322;SDS011;31382;50.200;8.674;2023-06-22T01:19:35;7.68;;;3.90;;
45322;SDS011;31382;50.200;8.674;2023-06-22T01:25:23;5.00;;;4.20;;
45322;SDS011;31382;50.200;8.674;2023-06-22T01:30:30;6.57;;;4.97;;
45322;SDS011;31382;50.200;8.674;2023-06-22T01:35:34;6.80;;;4.90;;
45322;SDS011;31382;50.200;8.674;2023-06-22T01:40:36;8.85;;;5.15;;
45322;SDS011;31382;50.200;8.674;2023-06-22T01:45:39;7.47;;;4.97;;
45322;SDS011;31382;50.200;8.674;2023-06-22T01:50:40;5.38;;;4.85;;
45322;SDS011;31382;50.200;8.674;2023-06-22T01:55:42;10.00;;;6.38;;
45322;SDS011;31382;50.200;8.674;2023-06-22T02:01:27;7.90;;;5.63;;
45322;SDS011;31382;50.200;8.674;2023-06-22T02:06:23;6.15;;;5.20;;
45322;SDS011;31382;50.200;8.674;2023-06-22T02:11:28;7.77;;;5.50;;
45322;SDS011;31382;50.200;8.674;2023-06-22T02:16:31;8.30;;;5.95;;
45322;SDS011;31382;50.200;8.674;2023-06-22T02:21:33;8.13;;;6.43;;
45322;SDS011;31382;50.200;8.674;2023-06-22T02:26:35;7.30;;;6.07;;
45322;SDS011;31382;50.200;8.674;2023-06-22T02:31:39;8.25;;;5.43;;
45322;SDS011;31382;50.200;8.674;2023-06-22T02:36:41;6.63;;;5.70;;
45322;SDS011;31382;50.200;8.674;2023-06-22T02:41:53;7.00;;;5.53;;
45322;SDS011;31382;50.200;8.674;2023-06-22T02:46:55;5.53;;;4.97;;
45322;SDS011;31382;50.200;8.674;2023-06-22T02:51:57;6.32;;;5.70;;
45322;SDS011;31382;50.200;8.674;2023-06-22T02:56:58;6.20;;;5.57;;
45322;SDS011;31382;50.200;8.674;2023-06-22T03:02:04;6.82;;;6.00;;
45322;SDS011;31382;50.200;8.674;2023-06-22T03:07:05;8.68;;;6.88;;
45322;SDS011;31382;50.200;8.674;2023-06-22T03:12:07;10.90;;;6.65;;
45322;SDS011;31382;50.200;8.674;2023-06-22T03:17:09;8.90;;;6.50;;
45322;SDS011;31382;50.200;8.674;2023-06-22T03:22:12;16.75;;;7.50;;
45322;SDS011;31382;50.200;8.674;2023-06-22T03:27:14;9.32;;;6.45;;
45322;SDS011;31382;50.200;8.674;2023-06-22T03:32:16;9.65;;;7.10;;
45322;SDS011;31382;50.200;8.674;2023-06-22T03:37:17;9.32;;;6.82;;
45322;SDS011;31382;50.200;8.674;2023-06-22T03:42:19;9.65;;;6.95;;
45322;SDS011;31382;50.200;8.674;2023-06-22T03:47:20;9.38;;;7.40;;
45322;SDS011;31382;50.200;8.674;2023-06-22T03:52:22;8.55;;;6.72;;
45322;SDS011;31382;50.200;8.674;2023-06-22T03:57:23;8.27;;;6.30;;
45322;SDS011;31382;50.200;8.674;2023-06-22T04:02:25;9.25;;;6.10;;
45322;SDS011;31382;50.200;8.674;2023-06-22T04:07:27;7.93;;;6.30;;
45322;SDS011;31382;50.200;8.674;2023-06-22T04:12:28;9.82;;;6.18;;
45322;SDS011;31382;50.200;8.674;2023-06-22T04:17:30;8.23;;;5.95;;
45322;SDS011;31382;50.200;8.674;2023-06-22T04:22:31;8.23;;;6.15;;
45322;SDS011;31382;50.200;8.674;2023-06-22T04:27:33;8.00;;;6.07;;
45322;SDS011;31382;50.200;8.674;2023-06-22T04:32:41;6.65;;;5.95;;
45322;SDS011;31382;50.200;8.674;2023-06-22T04:37:42;6.72;;;5.85;;
45322;SDS011;31382;50.200;8.674;2023-06-22T04:42:44;8.85;;;6.53;;
45322;SDS011;31382;50.200;8.674;2023-06-22T04:47:54;9.68;;;6.68;;
45322;SDS011;31382;50.200;8.674;2023-06-22T04:52:55;14.35;;;7.10;;
45322;SDS011;31382;50.200;8.674;2023-06-22T04:57:57;10.02;;;7.30;;
45322;SDS011;31382;50.200;8.674;2023-06-22T05:03:05;10.80;;;6.70;;
45322;SDS011;31382;50.200;8.674;2023-06-22T05:08:20;11.00;;;7.20;;
45322;SDS011;31382;50.200;8.674;2023-06-22T05:13:22;10.65;;;6.75;;
45322;SDS011;31382;50.200;8.674;2023-06-22T05:18:28;11.50;;;7.85;;
45322;SDS011;31382;50.200;8.674;2023-06-22T05:23:30;12.88;;;7.60;;
45322;SDS011;31382;50.200;8.674;2023-06-22T05:28:32;12.80;;;8.13;;
45322;SDS011;31382;50.200;8.674;2023-06-22T05:33:34;12.25;;;7.25;;
45322;SDS011;31382;50.200;8.674;2023-06-22T05:38:35;7.53;;;6.63;;
45322;SDS011;31382;50.200;8.674;2023-06-22T05:43:37;10.55;;;6.68;;
45322;SDS011;31382;50.200;8.674;2023-06-22T05:48:39;12.23;;;7.20;;
45322;SDS011;31382;50.200;8.674;2023-06-22T05:53:40;11.13;;;7.38;;
45322;SDS011;31382;50.200;8.674;2023-06-22T05:58:42;14.00;;;7.75;;
45322;SDS011;31382;50.200;8.674;2023-06-22T06:03:43;12.15;;;7.45;;
45322;SDS011;31382;50.200;8.674;2023-06-22T06:08:45;13.85;;;7.65;;
45322;SDS011;31382;50.200;8.674;2023-06-22T06:13:47;9.02;;;6.95;;
45322;SDS011;31382;50.200;8.674;2023-06-22T06:18:48;11.38;;;7.30;;
45322;SDS011;31382;50.200;8.674;2023-06-22T06:23:51;13.75;;;6.88;;
45322;SDS011;31382;50.200;8.674;2023-06-22T06:28:55;11.88;;;6.88;;
45322;SDS011;31382;50.200;8.674;2023-06-22T06:33:57;9.77;;;7.13;;
45322;SDS011;31382;50.200;8.674;2023-06-22T06:38:58;8.75;;;6.60;;
45322;SDS011;31382;50.200;8.674;2023-06-22T06:44:00;9.48;;;6.82;;
45322;SDS011;31382;50.200;8.674;2023-06-22T06:49:01;8.13;;;7.15;;
45322;SDS011;31382;50.200;8.674;2023-06-22T06:54:03;9.43;;;6.90;;
45322;SDS011;31382;50.200;8.674;2023-06-22T06:59:04;10.23;;;7.20;;
45322;SDS011;31382;50.200;8.674;2023-06-22T07:04:06;11.98;;;6.78;;
45322;SDS011;31382;50.200;8.674;2023-06-22T07:09:07;9.63;;;6.13;;
45322;SDS011;31382;50.200;8.674;2023-06-22T07:14:09;9.73;;;6.35;;
45322;SDS011;31382;50.200;8.674;2023-06-22T07:19:11;9.40;;;6.10;;
45322;SDS011;31382;50.200;8.674;2023-06-22T07:24:13;10.80;;;6.45;;
45322;SDS011;31382;50.200;8.674;2023-06-22T07:29:16;11.63;;;6.70;;
45322;SDS011;31382;50.200;8.674;2023-06-22T07:34:18;8.30;;;6.97;;
45322;SDS011;31382;50.200;8.674;2023-06-22T07:39:20;9.32;;;6.47;;
45322;SDS011;31382;50.200;8.674;2023-06-22T07:44:27;11.18;;;6.40;;
45322;SDS011;31382;50.200;8.674;2023-06-22T07:49:29;8.27;;;6.38;;
45322;SDS011;31382;50.200;8.674;2023-06-22T07:54:30;7.45;;;6.63;;
45322;SDS011;31382;50.200;8.674;2023-06-22T07:59:32;6.85;;;6.15;;
45322;SDS011;31382;50.200;8.674;2023-06-22T08:04:33;9.32;;;6.35;;
45322;SDS011;31382;50.200;8.674;2023-06-22T08:09:35;20.23;;;7.35;;
45322;SDS011;31382;50.200;8.674;2023-06-22T08:20:01;26.27;;;7.40;;
45322;SDS011;31382;50.200;8.674;2023-06-22T08:25:10;13.52;;;6.53;;
45322;SDS011;31382;50.200;8.674;2023-06-22T08:30:12;6.88;;;5.82;;
45322;SDS011;31382;50.200;8.674;2023-06-22T08:46:14;6.65;;;5.63;;
45322;SDS011;31382;50.200;8.674;2023-06-22T08:51:21;6.53;;;5.03;;
45322;SDS011;31382;50.200;8.674;2023-06-22T08:56:22;7.63;;;5.32;;
45322;SDS011;31382;50.200;8.674;2023-06-22T09:01:24;9.25;;;5.63;;
45322;SDS011;31382;50.200;8.674;2023-06-22T09:06:25;7.50;;;5.28;;
45322;SDS011;31382;50.200;8.674;2023-06-22T09:11:27;9.70;;;5.65;;
45322;SDS011;31382;50.200;8.674;2023-06-22T09:16:29;6.05;;;5.13;;
45322;SDS011;31382;50.200;8.674;2023-06-22T09:21:30;8.32;;;5.60;;
45322;SDS011;31382;50.200;8.674;2023-06-22T09:26:34;6.28;;;5.53;;
45322;SDS011;31382;50.200;8.674;2023-06-22T09:31:36;6.05;;;5.25;;
45322;SDS011;31382;50.200;8.674;2023-06-22T09:36:37;6.50;;;5.90;;
45322;SDS011;31382;50.200;8.674;2023-06-22T09:41:40;8.27;;;5.55;;
45322;SDS011;31382;50.200;8.674;2023-06-22T09:46:42;10.95;;;5.03;;
45322;SDS011;31382;50.200;8.674;2023-06-22T09:51:43;5.43;;;4.93;;
45322;SDS011;31382;50.200;8.674;2023-06-22T09:56:45;5.97;;;5.38;;
45322;SDS011;31382;50.200;8.674;2023-06-22T10:01:46;5.35;;;4.43;;
45322;SDS011;31382;50.200;8.674;2023-06-22T10:06:48;9.32;;;5.22;;
45322;SDS011;31382;50.200;8.674;2023-06-22T10:11:49;7.38;;;4.90;;
45322;SDS011;31382;50.200;8.674;2023-06-22T10:16:51;5.72;;;4.65;;
45322;SDS011;31382;50.200;8.674;2023-06-22T10:21:53;5.78;;;5.22;;
45322;SDS011;31382;50.200;8.674;2023-06-22T10:26:55;4.55;;;4.15;;
45322;SDS011;31382;50.200;8.674;2023-06-22T10:31:56;4.95;;;4.10;;
45322;SDS011;31382;50.200;8.674;2023-06-22T10:36:58;8.15;;;4.68;;
45322;SDS011;31382;50.200;8.674;2023-06-22T10:41:59;4.20;;;3.33;;
45322;SDS011;31382;50.200;8.674;2023-06-22T10:47:00;4.00;;;3.42;;
45322;SDS011;31382;50.200;8.674;2023-06-22T10:52:02;4.10;;;3.60;;
45322;SDS011;31382;50.200;8.674;2023-06-22T10:57:04;9.55;;;3.40;;
45322;SDS011;31382;50.200;8.674;2023-06-22T11:02:05;4.30;;;3.40;;
45322;SDS011;31382;50.200;8.674;2023-06-22T11:07:07;4.47;;;3.53;;
45322;SDS011;31382;50.200;8.674;2023-06-22T11:12:09;3.90;;;3.38;;
45322;SDS011;31382;50.200;8.674;2023-06-22T11:17:10;6.28;;;3.78;;
45322;SDS011;31382;50.200;8.674;2023-06-22T11:22:12;3.53;;;3.20;;
45322;SDS011;31382;50.200;8.674;2023-06-22T11:27:14;5.43;;;2.65;;
45322;SDS011;31382;50.200;8.674;2023-06-22T11:32:15;3.80;;;2.75;;
45322;SDS011;31382;50.200;8.674;2023-06-22T11:37:17;3.30;;;3.00;;
45322;SDS011;31382;50.200;8.674;2023-06-22T11:42:18;7.20;;;3.38;;
45322;SDS011;31382;50.200;8.674;2023-06-22T11:47:20;7.45;;;3.55;;
45322;SDS011;31382;50.200;8.674;2023-06-22T11:52:21;7.55;;;3.47;;
45322;SDS011;31382;50.200;8.674;2023-06-22T11:57:23;6.75;;;4.20;;
45322;SDS011;31382;50.200;8.674;2023-06-22T12:02:24;4.60;;;3.53;;
45322;SDS011;31382;50.200;8.674;2023-06-22T12:07:25;5.45;;;3.38;;
45322;SDS011;31382;50.200;8.674;2023-06-22T12:12:27;8.48;;;4.00;;
45322;SDS011;31382;50.200;8.674;2023-06-22T12:17:29;7.32;;;4.03;;
45322;SDS011;31382;50.200;8.674;2023-06-22T12:22:31;9.55;;;3.83;;
45322;SDS011;31382;50.200;8.674;2023-06-22T12:27:34;8.02;;;4.10;;
45322;SDS011;31382;50.200;8.674;2023-06-22T12:32:36;5.82;;;4.30;;
45322;SDS011;31382;50.200;8.674;2023-06-22T12:37:37;7.82;;;3.47;;
45322;SDS011;31382;50.200;8.674;2023-06-22T12:42:39;10.02;;;4.07;;
45322;SDS011;31382;50.200;8.674;2023-06-22T12:47:41;6.45;;;3.47;;
45322;SDS011;31382;50.200;8.674;2023-06-22T12:52:42;4.50;;;3.63;;
45322;SDS011;31382;50.200;8.674;2023-06-22T12:57:44;7.22;;;4.57;;
45322;SDS011;31382;50.200;8.674;2023-06-22T13:02:45;8.38;;;4.95;;
45322;SDS011;31382;50.200;8.674;2023-06-22T13:07:47;5.15;;;4.40;;
45322;SDS011;31382;50.200;8.674;2023-06-22T13:12:48;6.07;;;3.78;;
45322;SDS011;31382;50.200;8.674;2023-06-22T13:17:50;6.80;;;4.72;;
45322;SDS011;31382;50.200;8.674;2023-06-22T13:22:51;6.60;;;3.95;;
45322;SDS011;31382;50.200;8.674;2023-06-22T13:27:52;6.18;;;3.63;;
45322;SDS011;31382;50.200;8.674;2023-06-22T13:32:54;5.63;;;3.42;;
45322;SDS011;31382;50.200;8.674;2023-06-22T13:37:56;5.68;;;3.90;;
45322;SDS011;31382;50.200;8.674;2023-06-22T13:42:57;4.60;;;3.63;;
45322;SDS011;31382;50.200;8.674;2023-06-22T13:47:59;9.13;;;4.40;;
45322;SDS011;31382;50.200;8.674;2023-06-22T13:53:00;7.65;;;3.83;;
45322;SDS011;31382;50.200;8.674;2023-06-22T13:58:02;8.50;;;4.25;;
45322;SDS011;31382;50.200;8.674;2023-06-22T14:03:03;9.57;;;3.78;;
45322;SDS011;31382;50.200;8.674;2023-06-22T14:08:05;9.68;;;4.10;;
45322;SDS011;31382;50.200;8.674;2023-06-22T14:13:26;12.95;;;4.65;;
45322;SDS011;31382;50.200;8.674;2023-06-22T14:18:27;9.35;;;4.00;;
45322;SDS011;31382;50.200;8.674;2023-06-22T14:23:29;6.47;;;3.80;;
45322;SDS011;31382;50.200;8.674;2023-06-22T14:28:30;7.57;;;3.88;;
45322;SDS011;31382;50.200;8.674;2023-06-22T14:33:32;7.15;;;3.97;;
45322;SDS011;31382;50.200;8.674;2023-06-22T14:38:33;7.70;;;3.85;;
45322;SDS011;31382;50.200;8.674;2023-06-22T14:43:35;8.18;;;3.35;;
45322;SDS011;31382;50.200;8.674;2023-06-22T14:48:36;9.13;;;3.42;;
45322;SDS011;31382;50.200;8.674;2023-06-22T14:53:38;9.00;;;2.55;;
45322;SDS011;31382;50.200;8.674;2023-06-22T14:58:40;8.05;;;2.75;;
45322;SDS011;31382;50.200;8.674;2023-06-22T15:03:42;13.68;;;2.13;;
45322;SDS011;31382;50.200;8.674;2023-06-22T15:08:46;7.10;;;2.30;;
45322;SDS011;31382;50.200;8.674;2023-06-22T15:13:47;4.22;;;2.15;;
45322;SDS011;31382;50.200;8.674;2023-06-22T15:18:49;17.85;;;3.45;;
45322;SDS011;31382;50.200;8.674;2023-06-22T15:23:50;9.13;;;2.97;;
45322;SDS011;31382;50.200;8.674;2023-06-22T15:28:52;9.93;;;2.60;;
45322;SDS011;31382;50.200;8.674;2023-06-22T15:33:54;15.10;;;2.80;;
45322;SDS011;31382;50.200;8.674;2023-06-22T15:38:56;7.10;;;2.58;;
45322;SDS011;31382;50.200;8.674;2023-06-22T15:43:57;7.90;;;2.40;;
45322;SDS011;31382;50.200;8.674;2023-06-22T15:48:59;10.43;;;2.53;;
45322;SDS011;31382;50.200;8.674;2023-06-22T15:54:01;13.30;;;2.42;;
45322;SDS011;31382;50.200;8.674;2023-06-22T15:59:07;8.77;;;2.08;;
45322;SDS011;31382;50.200;8.674;2023-06-22T16:04:08;8.57;;;2.80;;
45322;SDS011;31382;50.200;8.674;2023-06-22T16:09:10;14.35;;;2.50;;
45322;SDS011;31382;50.200;8.674;2023-06-22T16:14:12;8.95;;;2.45;;
45322;SDS011;31382;50.200;8.674;2023-06-22T16:19:17;9.80;;;1.73;;
45322;SDS011;31382;50.200;8.674;2023-06-22T16:24:23;3.60;;;0.50;;
45322;SDS011;31382;50.200;8.674;2023-06-22T16:29:25;2.03;;;0.70;;
45322;SDS011;31382;50.200;8.674;2023-06-22T16:34:26;8.90;;;1.25;;
45322;SDS011;31382;50.200;8.674;2023-06-22T16:39:28;10.68;;;1.30;;
45322;SDS011;31382;50.200;8.674;2023-06-22T16:44:29;0.00;;;0.00;;
45322;SDS011;31382;50.200;8.674;2023-06-22T16:49:30;0.00;;;0.00;;
45322;SDS011;31382;50.200;8.674;2023-06-22T16:54:32;0.00;;;0.00;;
45322;SDS011;31382;50.200;8.674;2023-06-22T16:59:36;0.00;;;0.00;;
45322;SDS011;31382;50.200;8.674;2023-06-22T17:04:37;0.00;;;0.00;;
45322;SDS011;31382;50.200;8.674;2023-06-22T17:09:44;0.00;;;0.00;;
45322;SDS011;31382;50.200;8.674;2023-06-22T17:14:47;0.00;;;0.00;;
45322;SDS011;31382;50.200;8.674;2023-06-22T17:19:49;0.00;;;0.00;;
45322;SDS011;31382;50.200;8.674;2023-06-22T17:24:50;0.05;;;0.05;;
45322;SDS011;31382;50.200;8.674;2023-06-22T17:30:02;0.00;;;0.00;;
45322;SDS011;31382;50.200;8.674;2023-06-22T17:35:05;0.00;;;0.00;;
45322;SDS011;31382;50.200;8.674;2023-06-22T17:40:11;0.00;;;0.00;;
45322;SDS011;31382;50.200;8.674;2023-06-22T17:45:22;0.00;;;0.00;;
45322;SDS011;31382;50.200;8.674;2023-06-22T17:50:24;0.00;;;0.00;;
45322;SDS011;31382;50.200;8.674;2023-06-22T17:55:26;0.00;;;0.00;;
45322;SDS011;31382;50.200;8.674;2023-06-22T18:00:28;0.00;;;0.00;;
45322;SDS011;31382;50.200;8.674;2023-06-22T18:05:30;0.00;;;0.00;;
45322;SDS011;31382;50.200;8.674;2023-06-22T18:10:34;0.00;;;0.00;;
45322;SDS011;31382;50.200;8.674;2023-06-22T18:15:37;0.00;;;0.00;;
45322;SDS011;31382;50.200;8.674;2023-06-22T18:20:39;0.00;;;0.00;;
45322;SDS011;31382;50.200;8.674;2023-06-22T18:25:40;0.00;;;0.00;;
45322;SDS011;31382;50.200;8.674;2023-06-22T18:30:46;0.00;;;0.00;;
45322;SDS011;31382;50.200;8.674;2023-06-22T18:35:48;0.00;;;0.00;;
45322;SDS011;31382;50.200;8.674;2023-06-22T18:40:52;0.00;;;0.00;;
45322;SDS011;31382;50.200;8.674;2023-06-22T18:45:54;0.00;;;0.00;;
45322;SDS011;31382;50.200;8.674;2023-06-22T18:51:03;0.00;;;0.00;;
45322;SDS011;31382;50.200;8.674;2023-06-22T18:56:12;0.00;;;0.00;;
45322;SDS011;31382;50.200;8.674;2023-06-22T19:01:15;0.00;;;0.00;;
45322;SDS011;31382;50.200;8.674;2023-06-22T19:17:18;0.00;;;0.00;;
45322;SDS011;31382;50.200;8.674;2023-06-22T19:22:23;0.00;;;0.00;;
45322;SDS011;31382;50.200;8.674;2023-06-22T19:27:45;0.00;;;0.00;;
45322;SDS011;31382;50.200;8.674;2023-06-22T19:32:48;0.00;;;0.00;;
45322;SDS011;31382;50.200;8.674;2023-06-22T19:37:50;0.00;;;0.00;;
45322;SDS011;31382;50.200;8.674;2023-06-22T19:42:54;0.00;;;0.00;;
45322;SDS011;31382;50.200;8.674;2023-06-22T19:47:56;0.00;;;0.00;;
45322;SDS011;31382;50.200;8.674;2023-06-22T19:52:58;0.00;;;0.00;;
45322;SDS011;31382;50.200;8.674;2023-06-22T19:57:59;0.00;;;0.00;;
45322;SDS011;31382;50.200;8.674;2023-06-22T20:03:01;0.00;;;0.00;;
45322;SDS011;31382;50.200;8.674;2023-06-22T20:08:03;0.00;;;0.00;;
45322;SDS011;31382;50.200;8.674;2023-06-22T20:13:12;0.00;;;0.00;;
45322;SDS011;31382;50.200;8.674;2023-06-22T20:18:15;0.00;;;0.00;;
45322;SDS011;31382;50.200;8.674;2023-06-22T20:23:17;0.00;;;0.00;;
45322;SDS011;31382;50.200;8.674;2023-06-22T20:28:20;0.00;;;0.00;;
45322;SDS011;31382;50.200;8.674;2023-06-22T20:33:26;0.00;;;0.00;;
45322;SDS011;31382;50.200;8.674;2023-06-22T20:38:28;0.00;;;0.00;;
45322;SDS011;31382;50.200;8.674;2023-06-22T20:43:32;0.00;;;0.00;;
45322;SDS011;31382;50.200;8.674;2023-06-22T20:48:34;0.00;;;0.00;;
45322;SDS011;31382;50.200;8.674;2023-06-22T20:53:40;0.00;;;0.00;;
45322;SDS011;31382;50.200;8.674;2023-06-22T20:58:41;0.00;;;0.00;;
45322;SDS011;31382;50.200;8.674;2023-06-22T21:03:43;0.00;;;0.00;;
45322;SDS011;31382;50.200;8.674;2023-06-22T21:08:45;0.00;;;0.00;;
45322;SDS011;31382;50.200;8.674;2023-06-22T21:13:46;0.00;;;0.00;;
45322;SDS011;31382;50.200;8.674;2023-06-22T21:18:48;0.00;;;0.00;;
45322;SDS011;31382;50.200;8.674;2023-06-22T21:23:49;0.00;;;0.00;;
45322;SDS011;31382;50.200;8.674;2023-06-22T21:28:51;0.00;;;0.00;;
45322;SDS011;31382;50.200;8.674;2023-06-22T21:33:53;0.00;;;0.00;;
45322;SDS011;31382;50.200;8.674;2023-06-22T21:38:54;0.10;;;0.10;;
45322;SDS011;31382;50.200;8.674;2023-06-22T21:43:55;0.00;;;0.00;;
45322;SDS011;31382;50.200;8.674;2023-06-22T21:48:57;0.00;;;0.00;;
45322;SDS011;31382;50.200;8.674;2023-06-22T21:53:59;0.00;;;0.00;;
45322;SDS011;31382;50.200;8.674;2023-06-22T21:59:00;0.00;;;0.00;;
45322;SDS011;31382;50.200;8.674;2023-06-22T22:04:02;0.00;;;0.00;;
45322;SDS011;31382;50.200;8.674;2023-06-22T22:09:03;0.00;;;0.00;;
45322;SDS011;31382;50.200;8.674;2023-06-22T22:14:05;0.00;;;0.00;;
45322;SDS011;31382;50.200;8.674;2023-06-22T22:19:09;0.00;;;0.00;;
45322;SDS011;31382;50.200;8.674;2023-06-22T22:24:11;0.00;;;0.00;;
45322;SDS011;31382;50.200;8.674;2023-06-22T22:29:12;0.00;;;0.00;;
45322;SDS011;31382;50.200;8.674;2023-06-22T22:34:14;0.00;;;0.00;;
45322;SDS011;31382;50.200;8.674;2023-06-22T22:39:34;0.00;;;0.00;;
45322;SDS011;31382;50.200;8.674;2023-06-22T22:44:38;0.00;;;0.00;;
45322;SDS011;31382;50.200;8.674;2023-06-22T22:49:39;0.00;;;0.00;;
45322;SDS011;31382;50.200;8.674;2023-06-22T22:54:43;0.00;;;0.00;;
45322;SDS011;31382;50.200;8.674;2023-06-22T22:59:44;0.00;;;0.00;;
45322;SDS011;31382;50.200;8.674;2023-06-22T23:04:53;0.00;;;0.00;;
45322;SDS011;31382;50.200;8.674;2023-06-22T23:09:58;0.00;;;0.00;;
45322;SDS011;31382;50.200;8.674;2023-06-22T23:14:59;1.15;;;0.63;;
45322;SDS011;31382;50.200;8.674;2023-06-22T23:20:02;1.83;;;0.93;;
45322;SDS011;31382;50.200;8.674;2023-06-22T23:25:07;0.95;;;0.80;;
45322;SDS011;31382;50.200;8.674;2023-06-22T23:30:11;2.88;;;0.77;;
45322;SDS011;31382;50.200;8.674;2023-06-22T23:35:12;2.03;;;1.20;;
45322;SDS011;31382;50.200;8.674;2023-06-22T23:40:14;1.20;;;0.70;;
45322;SDS011;31382;50.200;8.674;2023-06-22T23:45:19;0.85;;;0.60;;
45322;SDS011;31382;50.200;8.674;2023-06-22T23:50:21;1.98;;;1.10;;
45322;SDS011;31382;50.200;8.674;2023-06-22T23:55:23;1.98;;;1.02;;
